Time;durP1;ratioP1;P1;durP2;ratioP2;P2;SDS_P1;SDS_P2;PMS_P1;PMS_P2;Temp;Humidity;BMP_temperature;BMP_pressure;BME280_temperature;BME280_humidity;BME280_pressure;Samples;Min_cycle;Max_cycle;Signal;HPM_P1;HPM_P2
2022/11/21 00:01:13;;;;;;;11.63;3.17;;;;;;;6.24;100.00;100702.31;5040394;28;20052;-74
2022/11/21 00:03:39;;;;;;;12.50;3.88;;;;;;;6.34;100.00;100705.69;5021710;28;20030;-74
2022/11/21 00:06:04;;;;;;;21.73;5.95;;;;;;;6.35;100.00;100723.69;5036916;28;20413;-75
2022/11/21 00:08:29;;;;;;;20.02;6.75;;;;;;;6.24;100.00;100724.06;5028325;28;20120;-74
2022/11/21 00:10:57;;;;;;;22.85;7.68;;;;;;;6.14;100.00;100717.13;5045318;28;20318;-75
2022/11/21 00:13:23;;;;;;;18.02;8.32;;;;;;;6.03;100.00;100718.31;5038023;28;20567;-74
2022/11/21 00:15:48;;;;;;;17.63;8.73;;;;;;;5.88;100.00;100720.00;5044304;28;20104;-74
2022/11/21 00:18:14;;;;;;;19.92;9.73;;;;;;;5.80;100.00;100720.03;5020476;28;20029;-73
2022/11/21 00:20:40;;;;;;;21.40;10.10;;;;;;;5.75;100.00;100726.94;5042991;28;20033;-73
2022/11/21 00:23:06;;;;;;;20.92;11.57;;;;;;;5.63;100.00;100722.88;5040899;28;20033;-73
2022/11/21 00:25:31;;;;;;;20.85;10.40;;;;;;;5.55;100.00;100714.72;5041913;28;20820;-73
2022/11/21 00:27:57;;;;;;;22.05;10.90;;;;;;;5.46;100.00;100715.72;5040742;28;20064;-73
2022/11/21 00:30:22;;;;;;;20.10;12.13;;;;;;;5.39;100.00;100717.44;5042364;28;20222;-74
2022/11/21 00:32:47;;;;;;;20.63;12.48;;;;;;;5.33;100.00;100709.94;5043960;28;20431;-74
2022/11/21 00:35:13;;;;;;;21.70;12.25;;;;;;;5.27;100.00;100707.88;5038424;28;20036;-74
2022/11/21 00:37:38;;;;;;;17.85;11.00;;;;;;;5.21;100.00;100711.28;5043730;28;20462;-74
2022/11/21 00:40:04;;;;;;;22.20;13.15;;;;;;;5.14;100.00;100694.78;5042769;28;20465;-74
2022/11/21 00:42:29;;;;;;;23.17;12.55;;;;;;;5.14;100.00;100689.34;5045402;28;20033;-74
2022/11/21 00:44:55;;;;;;;20.30;12.23;;;;;;;5.12;100.00;100687.84;5028175;28;20037;-74
2022/11/21 00:47:20;;;;;;;21.77;12.63;;;;;;;5.10;100.00;100687.16;5038343;28;20058;-73
2022/11/21 00:49:45;;;;;;;20.42;12.35;;;;;;;5.05;100.00;100678.66;5041938;28;20042;-73
2022/11/21 00:52:11;;;;;;;23.80;12.45;;;;;;;5.14;100.00;100673.06;5040277;28;20499;-73
2022/11/21 00:54:36;;;;;;;21.88;12.95;;;;;;;5.08;100.00;100676.44;5037321;28;20013;-73
2022/11/21 00:57:01;;;;;;;22.83;12.80;;;;;;;5.09;100.00;100675.47;5042515;28;20159;-73
2022/11/21 00:59:27;;;;;;;17.58;11.73;;;;;;;4.99;100.00;100680.19;5024256;28;20041;-74
2022/11/21 01:01:52;;;;;;;20.90;12.40;;;;;;;4.84;100.00;100692.69;5046942;28;20040;-74
2022/11/21 01:04:17;;;;;;;21.75;12.73;;;;;;;4.72;100.00;100695.84;5040149;28;20473;-74
2022/11/21 01:06:43;;;;;;;18.20;12.65;;;;;;;4.63;100.00;100700.41;5046246;28;20115;-74
2022/11/21 01:09:08;;;;;;;19.77;12.55;;;;;;;4.60;100.00;100694.47;5042539;28;20032;-73
2022/11/21 01:11:34;;;;;;;23.33;12.55;;;;;;;4.58;100.00;100702.75;5043323;28;20392;-74
2022/11/21 01:13:59;;;;;;;20.00;13.48;;;;;;;4.57;100.00;100702.91;5036192;28;20094;-74
2022/11/21 01:16:26;;;;;;;23.95;14.00;;;;;;;4.59;100.00;100712.59;5043094;28;20056;-73
2022/11/21 01:18:52;;;;;;;;;;;;;;;4.62;100.00;100716.84;5023850;28;20033;-73
2022/11/21 01:21:19;;;;;;;23.45;14.60;;;;;;;4.56;100.00;100720.19;5044165;28;19920;-73
2022/11/21 01:23:44;;;;;;;;;;;;;;;4.49;100.00;100711.03;5026014;28;20021;-74
2022/11/21 01:26:15;;;;;;;22.83;14.48;;;;;;;4.43;100.00;100717.94;5038415;28;20402;-74
2022/11/21 01:28:41;;;;;;;22.55;14.43;;;;;;;4.39;100.00;100711.13;5041481;28;20087;-74
2022/11/21 01:31:15;;;;;;;26.13;14.40;;;;;;;4.32;100.00;100710.06;5025694;28;20032;-73
2022/11/21 01:33:40;;;;;;;19.05;13.65;;;;;;;4.25;100.00;100700.03;5039491;28;20477;-74
2022/11/21 01:36:19;;;;;;;21.88;14.57;;;;;;;4.22;100.00;100689.53;5034893;28;20029;-74
2022/11/21 01:38:47;;;;;;;24.88;14.13;;;;;;;4.17;100.00;100692.69;5041317;28;20540;-73
2022/11/21 01:41:16;;;;;;;20.55;14.38;;;;;;;4.18;100.00;100694.38;5042422;28;20111;-74
2022/11/21 01:43:42;;;;;;;19.17;13.25;;;;;;;4.08;100.00;100693.69;5027740;28;20393;-74
2022/11/21 01:46:07;;;;;;;20.00;13.88;;;;;;;3.99;100.00;100701.88;5045350;28;20028;-73
2022/11/21 01:48:38;;;;;;;21.67;15.55;;;;;;;3.96;100.00;100702.22;5023893;28;20037;-74
2022/11/21 01:51:27;;;;;;;25.83;15.30;;;;;;;3.90;100.00;100694.72;5030208;28;20485;-74
2022/11/21 01:53:58;;;;;;;23.27;15.07;;;;;;;3.82;100.00;100702.78;5000738;28;20043;-73
2022/11/21 01:56:25;;;;;;;25.67;16.75;;;;;;;3.77;100.00;100699.69;5049503;28;20025;-74
2022/11/21 01:58:56;;;;;;;23.52;15.50;;;;;;;3.74;100.00;100700.88;5046827;28;20751;-75
2022/11/21 02:01:22;;;;;;;26.08;16.45;;;;;;;3.75;100.00;100696.31;5040195;28;20091;-74
2022/11/21 02:03:48;;;;;;;27.38;16.67;;;;;;;3.66;100.00;100692.69;5043905;28;20469;-73
2022/11/21 02:06:13;;;;;;;27.35;17.60;;;;;;;3.58;100.00;100700.72;5026641;28;20036;-74
2022/11/21 02:08:41;;;;;;;27.40;17.92;;;;;;;3.56;100.00;100700.03;5036173;28;20111;-73
2022/11/21 02:11:28;;;;;;;30.40;17.63;;;;;;;3.50;100.00;100703.38;5040921;28;20101;-74
2022/11/21 02:13:54;;;;;;;36.20;18.58;;;;;;;3.37;100.00;100693.97;5038456;28;20036;-73
2022/11/21 02:16:19;;;;;;;36.63;18.58;;;;;;;3.35;100.00;100699.53;5044368;28;20017;-73
2022/11/21 02:18:45;;;;;;;28.58;18.20;;;;;;;3.35;100.00;100707.63;5044537;28;20227;-73
2022/11/21 02:21:22;;;;;;;32.35;20.13;;;;;;;3.37;100.00;100702.91;5042276;28;20493;-73
2022/11/21 02:24:04;;;;;;;33.25;19.80;;;;;;;3.40;100.00;100709.88;5027517;28;20024;-74
2022/11/21 02:26:30;;;;;;;31.02;18.63;;;;;;;3.41;100.00;100703.44;5040960;28;20068;-74
2022/11/21 02:28:56;;;;;;;36.15;20.27;;;;;;;3.44;100.00;100708.56;5028126;28;20468;-74
2022/11/21 02:31:21;;;;;;;31.20;18.30;;;;;;;3.45;100.00;100700.28;5042895;28;20024;-74
2022/11/21 02:33:46;;;;;;;29.52;17.95;;;;;;;3.44;100.00;100689.63;5045903;28;20445;-74
2022/11/21 02:36:41;;;;;;;32.88;20.40;;;;;;;3.45;100.00;100699.44;5045068;28;20032;-74
2022/11/21 02:39:12;;;;;;;31.10;18.13;;;;;;;3.41;100.00;100701.59;5023227;28;20056;-74
2022/11/21 02:41:50;;;;;;;33.88;20.50;;;;;;;3.41;100.00;100692.63;5042429;28;20040;-74
2022/11/21 02:44:30;;;;;;;33.78;19.77;;;;;;;3.41;100.00;100701.59;5031328;28;20025;-74
2022/11/21 02:46:55;;;;;;;33.22;19.45;;;;;;;3.38;100.00;100695.66;5044989;28;20049;-74
2022/11/21 02:49:29;;;;;;;32.88;18.17;;;;;;;3.33;100.00;100706.09;5039559;28;20108;-74
2022/11/21 02:51:54;;;;;;;35.75;19.42;;;;;;;3.34;100.00;100711.34;5041306;28;20036;-74
2022/11/21 02:54:19;;;;;;;34.10;19.30;;;;;;;3.35;100.00;100704.94;5021188;28;20033;-74
2022/11/21 02:56:44;;;;;;;43.97;20.50;;;;;;;3.36;100.00;100709.34;5036358;28;20045;-74
2022/11/21 02:59:10;;;;;;;40.25;20.42;;;;;;;3.38;100.00;100712.72;5041284;28;20025;-74
2022/11/21 03:01:35;;;;;;;31.25;20.23;;;;;;;3.47;100.00;100710.97;5042894;28;20032;-74
2022/11/21 03:04:00;;;;;;;37.60;21.08;;;;;;;3.50;100.00;100702.53;5024223;28;20563;-74
2022/11/21 03:06:26;;;;;;;40.67;20.85;;;;;;;3.49;100.00;100692.69;5041036;28;20057;-74
2022/11/21 03:08:51;;;;;;;35.83;19.92;;;;;;;3.46;100.00;100693.88;5038820;28;20052;-74
2022/11/21 03:11:17;;;;;;;36.97;19.98;;;;;;;3.45;100.00;100685.91;5042164;28;20108;-73
2022/11/21 03:13:42;;;;;;;35.22;20.70;;;;;;;3.41;100.00;100689.91;5038590;28;20043;-75
2022/11/21 03:16:07;;;;;;;27.67;18.98;;;;;;;3.38;100.00;100685.66;5043703;28;20043;-74
2022/11/21 03:18:32;;;;;;;30.85;19.10;;;;;;;3.43;100.00;100685.22;5043754;28;20120;-74
2022/11/21 03:20:58;;;;;;;31.63;19.35;;;;;;;3.36;100.00;100674.16;5047972;28;20373;-74
2022/11/21 03:23:23;;;;;;;33.47;21.08;;;;;;;3.31;100.00;100673.75;5038086;28;20076;-74
2022/11/21 03:25:48;;;;;;;46.95;19.52;;;;;;;3.30;100.00;100669.34;5043941;28;20029;-74
2022/11/21 03:28:14;;;;;;;51.10;20.25;;;;;;;3.29;100.00;100673.06;5042054;28;20116;-73
2022/11/21 03:30:39;;;;;;;100.25;19.05;;;;;;;3.25;100.00;100668.97;5043151;28;20234;-74
2022/11/21 03:33:04;;;;;;;70.88;18.95;;;;;;;3.24;100.00;100661.00;5042157;28;20056;-74
2022/11/21 03:35:29;;;;;;;60.45;19.20;;;;;;;3.24;100.00;100666.41;5039147;28;20033;-73
2022/11/21 03:37:55;;;;;;;72.13;17.67;;;;;;;3.20;100.00;100665.06;5038457;28;20033;-73
2022/11/21 03:40:20;;;;;;;93.78;20.15;;;;;;;3.21;100.00;100672.16;5040316;28;20041;-74
2022/11/21 03:42:45;;;;;;;110.57;19.50;;;;;;;3.29;100.00;100673.06;5045354;28;20083;-73
2022/11/21 03:45:11;;;;;;;115.78;19.70;;;;;;;3.31;100.00;100678.34;5042222;28;20040;-73
2022/11/21 03:47:36;;;;;;;106.15;19.73;;;;;;;3.39;100.00;100668.44;5027068;28;20424;-72
2022/11/21 03:50:02;;;;;;;64.55;19.15;;;;;;;3.33;100.00;100665.50;5019221;28;20029;-73
2022/11/21 03:52:27;;;;;;;202.27;19.83;;;;;;;3.25;100.00;100666.28;5023161;28;20025;-72
2022/11/21 03:54:52;;;;;;;145.27;19.73;;;;;;;3.24;100.00;100655.59;5040210;28;20376;-73
2022/11/21 03:57:18;;;;;;;96.13;19.15;;;;;;;3.17;100.00;100651.81;5040979;28;20476;-72
2022/11/21 03:59:43;;;;;;;134.02;19.00;;;;;;;3.17;100.00;100657.22;5043675;28;20094;-72
2022/11/21 04:02:08;;;;;;;107.57;17.10;;;;;;;3.18;100.00;100653.50;5023558;28;20412;-73
2022/11/21 04:04:33;;;;;;;172.63;18.27;;;;;;;3.15;100.00;100653.84;5040691;28;20076;-72
2022/11/21 04:07:02;;;;;;;230.02;19.95;;;;;;;3.15;100.00;100661.94;5042355;28;20052;-72
2022/11/21 04:09:27;;;;;;;196.90;18.48;;;;;;;3.11;100.00;100664.09;5044258;28;20431;-73
2022/11/21 04:11:52;;;;;;;186.73;16.95;;;;;;;3.12;100.00;100664.94;5043151;28;20070;-72
2022/11/21 04:14:17;;;;;;;219.27;15.55;;;;;;;3.05;100.00;100664.72;5040072;28;20065;-73
2022/11/21 04:16:43;;;;;;;230.32;16.50;;;;;;;3.07;100.00;100654.59;5036874;28;20052;-73
2022/11/21 04:19:08;;;;;;;207.93;17.15;;;;;;;3.08;100.00;100660.84;5043400;28;20017;-73
2022/11/21 04:21:33;;;;;;;236.43;17.70;;;;;;;3.05;100.00;100661.19;5041764;28;20606;-73
2022/11/21 04:23:59;;;;;;;332.02;19.15;;;;;;;3.05;100.00;100653.88;5040918;28;20039;-73
2022/11/21 04:26:24;;;;;;;265.50;18.38;;;;;;;3.10;100.00;100656.16;5023292;28;20028;-73
2022/11/21 04:28:49;;;;;;;217.48;18.42;;;;;;;3.10;100.00;100653.44;5044711;28;20110;-73
2022/11/21 04:31:15;;;;;;;192.77;18.75;;;;;;;3.24;100.00;100669.97;5025319;28;20266;-73
2022/11/21 04:33:40;;;;;;;167.45;17.30;;;;;;;3.27;100.00;100658.84;5029452;28;20448;-73
2022/11/21 04:36:07;;;;;;;117.47;16.80;;;;;;;3.18;100.00;100659.78;5024159;28;20032;-73
2022/11/21 04:38:32;;;;;;;116.35;16.80;;;;;;;3.20;100.00;100644.22;5034938;28;20128;-73
2022/11/21 04:40:57;;;;;;;175.27;16.08;;;;;;;3.17;100.00;100641.00;5042953;28;20124;-73
2022/11/21 04:43:23;;;;;;;145.32;16.40;;;;;;;3.07;100.00;100640.22;5041394;28;20021;-73
2022/11/21 04:45:48;;;;;;;132.05;16.58;;;;;;;3.05;100.00;100642.25;5041905;28;20380;-73
2022/11/21 04:48:13;;;;;;;89.28;15.90;;;;;;;3.01;100.00;100630.00;5039300;28;20029;-73
2022/11/21 04:50:38;;;;;;;64.65;14.65;;;;;;;3.09;100.00;100630.94;5043964;28;20051;-73
2022/11/21 04:53:04;;;;;;;70.18;14.55;;;;;;;3.04;100.00;100624.31;5036517;28;20108;-73
2022/11/21 04:55:30;;;;;;;55.03;14.45;;;;;;;3.00;100.00;100617.50;5022132;28;20021;-73
2022/11/21 04:57:56;;;;;;;74.38;14.85;;;;;;;2.98;100.00;100614.09;5040274;28;20032;-73
2022/11/21 05:00:22;;;;;;;88.97;15.02;;;;;;;2.97;100.00;100606.97;5040278;28;20033;-73
2022/11/21 05:02:47;;;;;;;105.38;15.85;;;;;;;2.92;100.00;100604.75;5023936;28;20479;-73
2022/11/21 05:05:13;;;;;;;93.70;14.95;;;;;;;2.91;100.00;100602.19;5024518;28;20505;-73
2022/11/21 05:07:38;;;;;;;115.45;14.30;;;;;;;2.92;100.00;100601.19;5024077;28;20572;-73
2022/11/21 05:10:07;;;;;;;157.60;14.15;;;;;;;2.88;100.00;100597.94;5042793;28;20067;-73
2022/11/21 05:15:18;;;;;;;116.68;12.75;;;;;;;2.91;100.00;100600.34;5040714;28;20542;-74
2022/11/21 05:17:43;;;;;;;156.00;13.57;;;;;;;2.91;100.00;100599.50;5040387;28;20033;-73
2022/11/21 05:20:09;;;;;;;175.45;13.73;;;;;;;3.01;100.00;100602.97;5026565;28;20127;-73
2022/11/21 05:22:34;;;;;;;203.27;14.65;;;;;;;2.98;100.00;100593.31;5039684;28;20065;-73
2022/11/21 05:24:59;;;;;;;158.40;13.98;;;;;;;2.94;100.00;100578.38;5024004;28;20414;-73
2022/11/21 05:27:25;;;;;;;157.90;14.77;;;;;;;2.95;100.00;100587.38;5044593;28;20117;-73
2022/11/21 05:29:50;;;;;;;128.05;14.23;;;;;;;2.98;100.00;100589.75;5042209;28;20393;-73
2022/11/21 05:32:15;;;;;;;135.52;14.30;;;;;;;3.04;100.00;100584.56;5023389;28;20088;-73
2022/11/21 05:34:41;;;;;;;135.07;15.00;;;;;;;3.01;100.00;100570.50;5046135;28;20029;-73
2022/11/21 05:37:06;;;;;;;136.05;14.32;;;;;;;3.01;100.00;100571.38;5041983;28;20033;-73
2022/11/21 05:39:31;;;;;;;104.13;13.02;;;;;;;3.03;100.00;100569.34;5028614;28;20031;-73
2022/11/21 05:41:56;;;;;;;97.90;13.75;;;;;;;2.99;100.00;100564.41;5043067;28;20031;-73
2022/11/21 05:44:22;;;;;;;74.22;13.70;;;;;;;3.00;100.00;100564.22;5028221;28;20029;-73
2022/11/21 05:46:47;;;;;;;145.55;15.70;;;;;;;2.99;100.00;100559.00;5044856;28;20075;-73
2022/11/21 05:49:13;;;;;;;120.55;14.27;;;;;;;2.98;100.00;100554.56;5042709;28;20388;-73
2022/11/21 05:51:38;;;;;;;75.50;13.27;;;;;;;3.02;100.00;100550.56;5045957;28;20143;-73
2022/11/21 05:54:04;;;;;;;72.13;14.90;;;;;;;3.04;100.00;100549.41;5043630;28;20045;-73
2022/11/21 05:56:30;;;;;;;29.70;13.32;;;;;;;3.04;100.00;100546.69;5044072;28;20029;-73
2022/11/21 05:58:57;;;;;;;84.72;14.57;;;;;;;3.04;100.00;100548.56;5046384;28;20025;-73
2022/11/21 06:04:07;;;;;;;58.17;13.48;;;;;;;3.02;100.00;100542.44;5043661;28;19923;-73
2022/11/21 06:06:33;;;;;;;79.25;14.75;;;;;;;3.07;100.00;100548.22;5045334;28;21540;-73
2022/11/21 06:08:59;;;;;;;45.63;13.13;;;;;;;3.03;100.00;100545.00;5025592;28;20108;-74
2022/11/21 06:11:24;;;;;;;79.32;13.93;;;;;;;2.97;100.00;100544.75;5040839;28;20086;-73
2022/11/21 06:13:51;;;;;;;52.00;13.77;;;;;;;2.97;100.00;100536.66;5040841;28;20041;-73
2022/11/21 06:16:18;;;;;;;47.00;13.55;;;;;;;2.95;100.00;100534.09;5028025;28;20076;-73
2022/11/21 06:18:46;;;;;;;49.60;12.73;;;;;;;2.97;100.00;100533.94;5031325;28;20052;-73
2022/11/21 06:21:19;;;;;;;118.03;14.07;;;;;;;2.96;100.00;100525.00;5029282;28;20029;-73
2022/11/21 06:23:46;;;;;;;152.88;14.52;;;;;;;2.95;100.00;100527.84;5042587;28;20102;-73
2022/11/21 06:26:16;;;;;;;70.15;12.60;;;;;;;2.93;100.00;100533.41;5038335;28;20538;-73
2022/11/21 06:28:43;;;;;;;51.53;12.52;;;;;;;2.92;100.00;100529.03;5024234;28;20071;-73
2022/11/21 06:31:09;;;;;;;72.43;12.10;;;;;;;2.94;100.00;100528.88;5029028;28;20163;-73
2022/11/21 06:33:35;;;;;;;76.80;12.88;;;;;;;2.95;100.00;100527.84;5044415;28;20044;-74
2022/11/21 06:36:06;;;;;;;62.25;12.70;;;;;;;2.96;100.00;100518.72;5044344;28;20481;-73
2022/11/21 06:38:32;;;;;;;36.00;12.02;;;;;;;2.96;100.00;100514.19;5043865;28;20028;-73
2022/11/21 06:41:03;;;;;;;25.70;12.40;;;;;;;3.00;100.00;100509.31;5041730;28;20041;-73
2022/11/21 06:43:28;;;;;;;24.98;12.10;;;;;;;3.02;100.00;100509.97;5042919;28;20067;-73
2022/11/21 06:45:55;;;;;;;16.23;10.80;;;;;;;3.00;100.00;100512.84;5044142;28;20056;-74
2022/11/21 06:48:21;;;;;;;23.40;11.30;;;;;;;3.00;100.00;100503.91;5041799;28;20029;-73
2022/11/21 06:50:46;;;;;;;20.27;11.85;;;;;;;3.01;100.00;100505.59;5024642;28;20025;-75
2022/11/21 06:53:11;;;;;;;20.45;11.68;;;;;;;3.02;100.00;100494.63;5025856;28;20030;-74
2022/11/21 06:55:37;;;;;;;24.10;12.30;;;;;;;3.02;100.00;100496.47;5043358;28;20368;-73
2022/11/21 06:58:02;;;;;;;17.17;12.32;;;;;;;3.05;100.00;100496.97;5042213;28;20036;-73
2022/11/21 07:00:27;;;;;;;17.60;12.48;;;;;;;3.10;100.00;100504.66;5044755;28;20437;-73
2022/11/21 07:02:58;;;;;;;18.45;12.60;;;;;;;3.16;100.00;100504.00;5029328;28;20134;-73
2022/11/21 07:05:23;;;;;;;16.65;11.95;;;;;;;3.20;100.00;100500.00;5040387;28;20039;-73
2022/11/21 07:07:48;;;;;;;22.33;11.93;;;;;;;3.28;100.00;100491.91;5023265;28;20255;-74
2022/11/21 07:10:14;;;;;;;20.67;12.13;;;;;;;3.31;100.00;100491.59;5039868;28;20017;-73
2022/11/21 07:15:23;;;;;;;24.20;13.98;;;;;;;3.38;100.00;100492.66;5041437;28;20040;-74
2022/11/21 07:17:48;;;;;;;20.30;12.52;;;;;;;3.38;100.00;100493.47;5046321;28;20388;-74
2022/11/21 07:20:14;;;;;;;16.73;11.90;;;;;;;3.41;100.00;100495.00;5043612;28;20032;-74
2022/11/21 07:22:39;;;;;;;19.45;12.23;;;;;;;3.42;100.00;100489.44;5042434;28;20024;-74
2022/11/21 07:25:05;;;;;;;26.90;12.48;;;;;;;3.39;100.00;100494.34;5026391;28;20021;-74
2022/11/21 07:27:30;;;;;;;19.30;11.77;;;;;;;3.37;100.00;100491.78;5042618;28;20109;-74
2022/11/21 07:29:58;;;;;;;17.75;11.75;;;;;;;3.30;100.00;100488.03;5039371;28;20061;-74
2022/11/21 07:32:25;;;;;;;17.15;11.63;;;;;;;3.25;100.00;100478.69;5040807;28;20037;-74
2022/11/21 07:34:50;;;;;;;20.15;10.90;;;;;;;3.18;100.00;100477.63;5032830;28;20060;-74
2022/11/21 07:37:15;;;;;;;17.45;10.77;;;;;;;3.15;100.00;100481.50;5036282;28;20124;-74
2022/11/21 07:39:41;;;;;;;18.85;11.00;;;;;;;3.08;100.00;100483.16;5041890;28;20041;-75
2022/11/21 07:42:06;;;;;;;20.38;10.98;;;;;;;3.01;100.00;100481.25;5036093;28;20048;-75
2022/11/21 07:44:31;;;;;;;17.33;10.45;;;;;;;2.95;100.00;100477.28;5042960;28;20362;-75
2022/11/21 07:46:57;;;;;;;17.75;9.60;;;;;;;2.92;100.00;100474.06;5044806;28;20052;-75
2022/11/21 07:49:22;;;;;;;16.02;10.50;;;;;;;2.88;100.00;100470.00;5027206;28;20119;-74
2022/11/21 07:51:47;;;;;;;19.80;10.55;;;;;;;2.87;100.00;100481.78;5026325;28;20056;-74
2022/11/21 07:54:12;;;;;;;12.43;9.88;;;;;;;2.80;100.00;100476.19;5044204;28;20032;-73
2022/11/21 07:56:38;;;;;;;20.08;11.77;;;;;;;2.81;100.00;100472.47;5044418;28;20525;-74
2022/11/21 07:59:03;;;;;;;18.88;10.82;;;;;;;2.76;100.00;100469.38;5044454;28;20033;-74
2022/11/21 08:01:28;;;;;;;20.98;11.13;;;;;;;2.75;100.00;100472.25;5041524;28;20424;-73
2022/11/21 08:03:54;;;;;;;15.63;10.45;;;;;;;2.75;100.00;100464.13;5048279;28;20036;-74
2022/11/21 08:06:19;;;;;;;19.13;9.70;;;;;;;2.75;100.00;100474.94;5024274;28;20060;-73
2022/11/21 08:08:44;;;;;;;17.13;8.88;;;;;;;2.78;100.00;100464.66;5044019;28;20068;-74
2022/11/21 08:11:09;;;;;;;14.63;8.68;;;;;;;2.76;100.00;100461.28;5023950;28;20434;-74
2022/11/21 08:13:35;;;;;;;14.90;8.85;;;;;;;2.78;100.00;100463.84;5040194;28;20033;-75
2022/11/21 08:16:04;;;;;;;17.35;9.18;;;;;;;2.78;100.00;100455.72;5043217;28;20033;-74
2022/11/21 08:18:30;;;;;;;19.17;9.65;;;;;;;2.84;100.00;100446.97;5038711;28;20036;-74
2022/11/21 08:20:56;;;;;;;13.68;9.65;;;;;;;2.88;100.00;100435.66;5037550;28;20033;-74
2022/11/21 08:23:21;;;;;;;26.27;8.85;;;;;;;2.93;100.00;100435.19;5037085;28;20048;-74
2022/11/21 08:25:46;;;;;;;23.20;8.50;;;;;;;2.92;100.00;100428.94;5045564;28;20028;-74
2022/11/21 08:28:12;;;;;;;19.75;9.07;;;;;;;2.93;100.00;100422.53;5046318;28;20480;-74
2022/11/21 08:30:39;;;;;;;16.40;9.07;;;;;;;3.01;100.00;100433.41;5045616;28;20035;-74
2022/11/21 08:33:05;;;;;;;14.27;8.38;;;;;;;3.04;100.00;100440.34;5043951;28;20039;-74
2022/11/21 08:35:30;;;;;;;17.57;9.13;;;;;;;3.06;100.00;100427.50;5038476;28;20044;-73
2022/11/21 08:37:56;;;;;;;15.23;8.27;;;;;;;3.40;100.00;100436.47;5021902;28;20405;-74
2022/11/21 08:40:23;;;;;;;13.45;8.18;;;;;;;3.51;100.00;100430.78;5042930;28;20149;-74
2022/11/21 08:43:04;;;;;;;16.60;7.55;;;;;;;3.78;100.00;100425.13;5040878;28;21251;-74
2022/11/21 08:45:31;;;;;;;24.55;7.90;;;;;;;3.84;100.00;100430.75;5033714;28;20036;-73
2022/11/21 08:47:56;;;;;;;14.70;7.30;;;;;;;4.02;100.00;100428.75;5023101;28;20065;-73
2022/11/21 08:50:22;;;;;;;19.77;8.20;;;;;;;4.30;100.00;100421.19;5044769;28;20172;-73
2022/11/21 08:52:48;;;;;;;21.90;8.32;;;;;;;4.48;100.00;100425.44;5043373;28;20024;-73
2022/11/21 08:55:13;;;;;;;35.55;9.00;;;;;;;4.52;100.00;100415.97;5042005;28;20453;-74
2022/11/21 08:57:39;;;;;;;26.52;8.48;;;;;;;4.67;100.00;100418.81;5037086;28;20037;-73
2022/11/21 09:00:06;;;;;;;27.17;9.77;;;;;;;4.73;100.00;100407.28;5047266;28;20384;-74
2022/11/21 09:02:31;;;;;;;25.17;9.50;;;;;;;4.76;100.00;100413.22;5049559;28;20056;-73
2022/11/21 09:04:57;;;;;;;25.50;8.43;;;;;;;4.77;100.00;100397.81;5025224;28;20025;-73
2022/11/21 09:07:22;;;;;;;24.10;8.98;;;;;;;4.94;100.00;100391.31;5039899;28;20035;-73
2022/11/21 09:09:47;;;;;;;18.20;9.35;;;;;;;5.04;100.00;100386.56;5031801;28;20059;-73
2022/11/21 09:12:13;;;;;;;26.73;10.55;;;;;;;5.03;100.00;100382.97;5042069;28;20080;-73
2022/11/21 09:20:06;;;;;;;30.08;11.23;;;;;;;5.19;100.00;100385.66;5044978;28;20579;-73
2022/11/21 09:22:32;;;;;;;33.20;10.23;;;;;;;5.29;100.00;100377.34;5041664;28;20119;-73
2022/11/21 09:24:57;;;;;;;38.45;11.90;;;;;;;5.53;100.00;100382.66;5039845;28;20051;-73
2022/11/21 09:27:22;;;;;;;27.60;11.50;;;;;;;5.56;100.00;100371.44;5028682;28;20362;-73
2022/11/21 09:29:47;;;;;;;32.15;11.38;;;;;;;5.64;100.00;100377.69;5040742;28;20041;-73
2022/11/21 09:32:13;;;;;;;23.13;10.48;;;;;;;5.72;100.00;100380.34;5044923;28;20090;-73
2022/11/21 09:34:38;;;;;;;26.42;10.82;;;;;;;5.85;100.00;100374.38;5040462;28;20441;-73
2022/11/21 09:37:03;;;;;;;27.40;11.07;;;;;;;5.95;100.00;100375.00;5043900;28;20029;-73
2022/11/21 09:39:28;;;;;;;26.90;10.15;;;;;;;6.02;100.00;100370.53;5024099;28;20606;-73
2022/11/21 09:42:01;;;;;;;34.47;10.80;;;;;;;6.04;100.00;100360.34;5040820;28;20071;-74
2022/11/21 09:44:53;;;;;;;27.42;10.30;;;;;;;6.11;100.00;100358.56;5046535;28;20115;-73
2022/11/21 09:47:31;;;;;;;26.52;10.60;;;;;;;6.18;100.00;100354.09;5042958;28;20032;-73
2022/11/21 09:49:59;;;;;;;34.90;11.75;;;;;;;6.24;100.00;100351.50;5045719;28;20033;-73
2022/11/21 09:52:37;;;;;;;27.27;12.43;;;;;;;6.32;100.00;100353.31;5047022;28;20513;-73
2022/11/21 09:55:15;;;;;;;28.45;10.30;;;;;;;6.54;100.00;100349.72;5043143;28;20036;-73
2022/11/21 09:57:40;;;;;;;38.20;14.02;;;;;;;6.64;100.00;100340.28;5045748;28;20029;-73
2022/11/21 10:00:14;;;;;;;26.40;10.40;;;;;;;6.74;100.00;100343.56;5028979;28;20078;-73
2022/11/21 10:02:40;;;;;;;25.00;9.90;;;;;;;6.79;100.00;100332.97;5028779;28;20393;-73
2022/11/21 10:05:12;;;;;;;22.90;9.68;;;;;;;6.88;100.00;100333.75;5024163;28;20135;-73
2022/11/21 10:07:38;;;;;;;23.63;9.43;;;;;;;6.78;100.00;100331.28;5042998;28;20078;-73
2022/11/21 10:10:31;;;;;;;23.27;9.43;;;;;;;6.81;100.00;100333.66;5047750;28;20128;-73
2022/11/21 10:13:11;;;;;;;26.67;10.15;;;;;;;6.75;100.00;100330.81;5041442;28;20048;-73
2022/11/21 10:15:57;;;;;;;32.45;8.68;;;;;;;6.75;100.00;100323.50;5041518;28;20084;-73
2022/11/21 10:18:28;;;;;;;21.33;8.90;;;;;;;6.88;100.00;100314.72;5028806;28;20057;-73
2022/11/21 10:21:45;;;;;;;18.08;9.27;;;;;;;6.85;100.00;100315.06;5037450;28;20037;-73
2022/11/21 10:24:37;;;;;;;22.70;9.02;;;;;;;6.76;100.00;100316.16;4994487;28;20044;-73
2022/11/21 10:27:28;;;;;;;21.08;8.32;;;;;;;6.72;100.00;100304.81;5044051;28;20033;-73
2022/11/21 10:30:15;;;;;;;19.58;8.73;;;;;;;6.74;100.00;100312.81;5042434;28;20051;-73
2022/11/21 10:32:45;;;;;;;18.40;8.57;;;;;;;6.80;100.00;100317.50;5040191;28;20030;-74
2022/11/21 10:35:21;;;;;;;25.60;9.95;;;;;;;6.78;100.00;100314.97;5029352;28;20033;-74
2022/11/21 10:37:52;;;;;;;22.27;8.00;;;;;;;6.92;100.00;100307.84;5040436;28;20029;-74
2022/11/21 10:40:40;;;;;;;21.15;7.40;;;;;;;6.94;100.00;100292.19;5043750;28;20030;-74
2022/11/21 10:46:02;;;;;;;19.42;6.93;;;;;;;7.12;100.00;100295.34;5036900;28;20048;-74
2022/11/21 10:48:27;;;;;;;16.17;6.38;;;;;;;7.21;100.00;100283.34;5028225;28;20388;-74
2022/11/21 10:51:09;;;;;;;21.13;7.47;;;;;;;7.37;100.00;100291.28;5028165;28;20040;-74
2022/11/21 10:56:25;;;;;;;19.80;6.65;;;;;;;7.58;100.00;100275.81;5042343;28;20464;-74
2022/11/21 10:58:53;;;;;;;13.07;5.70;;;;;;;7.67;100.00;100268.38;5045535;28;20094;-74
2022/11/21 11:01:21;;;;;;;17.23;5.25;;;;;;;7.76;100.00;100262.63;5047718;28;20108;-73
2022/11/21 11:04:03;;;;;;;18.50;5.60;;;;;;;7.86;99.89;100265.03;5036585;28;20036;-73
2022/11/21 11:06:28;;;;;;;12.65;5.05;;;;;;;8.01;99.32;100247.53;5018141;28;20032;-74
2022/11/21 11:08:53;;;;;;;15.02;5.72;;;;;;;8.16;97.68;100252.94;5041791;28;20539;-73
2022/11/21 11:11:21;;;;;;;16.23;4.57;;;;;;;8.21;96.21;100248.59;5045408;28;20033;-73
2022/11/21 11:13:59;;;;;;;17.90;4.85;;;;;;;8.26;95.26;100237.09;5034459;28;20037;-73
2022/11/21 11:16:26;;;;;;;9.98;3.97;;;;;;;8.40;93.92;100234.28;5033289;28;20465;-74
2022/11/21 11:18:57;;;;;;;13.57;3.75;;;;;;;8.43;94.80;100220.25;5035612;28;20027;-74
2022/11/21 11:21:30;;;;;;;17.50;4.97;;;;;;;8.49;94.23;100215.88;5021369;28;20037;-74
2022/11/21 11:24:10;;;;;;;11.52;3.65;;;;;;;8.56;93.75;100214.03;5021644;28;20039;-73
2022/11/21 11:26:48;;;;;;;17.52;3.97;;;;;;;8.65;93.86;100210.13;5039304;28;20029;-74
2022/11/21 11:29:22;;;;;;;8.82;4.05;;;;;;;8.67;93.01;100211.59;5040149;28;20116;-73
2022/11/21 11:32:03;;;;;;;12.15;4.15;;;;;;;8.80;92.60;100203.47;5045547;28;20034;-73
2022/11/21 11:34:34;;;;;;;9.40;3.47;;;;;;;8.72;92.58;100192.72;5024420;28;20032;-73